createdAt,value
2023-05-03T00:00:53.808Z,2.03
2023-05-03T00:01:53.872Z,2.02
2023-05-03T00:02:54.109Z,2.00
2023-05-03T00:03:54.078Z,1.99
2023-05-03T00:04:53.814Z,1.98
2023-05-03T00:05:53.789Z,1.95
2023-05-03T00:06:53.846Z,1.95
2023-05-03T00:07:53.809Z,1.91
2023-05-03T00:08:53.878Z,1.91
2023-05-03T00:09:53.719Z,1.91
2023-05-03T00:10:53.715Z,1.91
2023-05-03T00:11:53.733Z,1.90
2023-05-03T00:12:53.698Z,1.91
2023-05-03T00:13:53.692Z,1.91
2023-05-03T00:14:53.742Z,1.88
2023-05-03T00:15:53.632Z,1.86
2023-05-03T00:16:53.679Z,1.84
2023-05-03T00:17:53.700Z,1.83
2023-05-03T00:18:53.673Z,1.81
2023-05-03T00:19:53.605Z,1.80
2023-05-03T00:20:53.638Z,1.77
2023-05-03T00:21:53.594Z,1.76
2023-05-03T00:22:53.567Z,1.72
2023-05-03T00:23:53.699Z,1.69
2023-05-03T00:24:53.618Z,1.69
2023-05-03T00:25:53.532Z,1.66
2023-05-03T00:26:53.574Z,1.66
2023-05-03T00:27:53.510Z,1.63
2023-05-03T00:28:53.527Z,1.63
2023-05-03T00:29:53.497Z,1.66
2023-05-03T00:30:53.601Z,1.69
2023-05-03T00:31:53.492Z,1.68
2023-05-03T00:32:53.518Z,1.66
2023-05-03T00:33:53.488Z,1.66
2023-05-03T00:34:53.465Z,1.66
2023-05-03T00:35:53.411Z,1.63
2023-05-03T00:36:53.452Z,1.60
2023-05-03T00:37:53.390Z,1.58
2023-05-03T00:38:53.403Z,1.58
2023-05-03T00:39:53.384Z,1.55
2023-05-03T00:40:53.395Z,1.55
2023-05-03T00:41:53.364Z,1.58
2023-05-03T00:42:53.381Z,1.55
2023-05-03T00:43:53.843Z,1.55
2023-05-03T00:44:55.760Z,1.54
2023-05-03T00:45:57.135Z,1.51
2023-05-03T00:46:54.370Z,1.48
2023-05-03T00:47:53.359Z,1.47
2023-05-03T00:48:53.307Z,1.45
2023-05-03T00:49:53.270Z,1.44
2023-05-03T00:50:53.271Z,1.42
2023-05-03T00:51:53.271Z,1.44
2023-05-03T00:52:53.275Z,1.42
2023-05-03T00:53:53.214Z,1.44
2023-05-03T00:54:53.284Z,1.42
2023-05-03T00:55:53.203Z,1.41
2023-05-03T00:56:53.252Z,1.40
2023-05-03T00:57:53.190Z,1.40
2023-05-03T00:58:53.203Z,1.37
2023-05-03T00:59:53.214Z,1.36
2023-05-03T01:00:53.161Z,1.36
2023-05-03T01:01:53.240Z,1.33
2023-05-03T01:02:53.179Z,1.32
2023-05-03T01:03:53.588Z,1.29
2023-05-03T01:04:53.579Z,1.27
2023-05-03T01:05:53.567Z,1.24
2023-05-03T01:06:53.211Z,1.22
2023-05-03T01:07:53.105Z,1.23
2023-05-03T01:08:53.618Z,1.20
2023-05-03T01:09:53.230Z,1.20
2023-05-03T01:10:53.151Z,1.20
2023-05-03T01:11:53.035Z,1.16
2023-05-03T01:12:53.070Z,1.15
2023-05-03T01:13:53.016Z,1.14
2023-05-03T01:14:53.065Z,1.11
2023-05-03T01:15:53.074Z,1.14
2023-05-03T01:16:53.036Z,1.14
2023-05-03T01:17:53.115Z,1.12
2023-05-03T01:18:53.018Z,1.12
2023-05-03T01:19:52.924Z,1.11
2023-05-03T01:20:52.961Z,1.09
2023-05-03T01:21:52.911Z,1.09
2023-05-03T01:22:52.957Z,1.08
2023-05-03T01:23:52.877Z,1.06
2023-05-03T01:24:52.938Z,1.05
2023-05-03T01:25:53.267Z,1.04
2023-05-03T01:26:52.904Z,0.98
2023-05-03T01:27:52.840Z,0.97
2023-05-03T01:28:52.943Z,0.96
2023-05-03T01:29:52.832Z,0.97
2023-05-03T01:30:52.945Z,0.98
2023-05-03T01:31:52.982Z,0.98
2023-05-03T01:32:52.835Z,0.98
2023-05-03T01:33:52.790Z,0.97
2023-05-03T01:34:52.846Z,0.96
2023-05-03T01:35:52.860Z,0.93
2023-05-03T01:36:52.807Z,0.91
2023-05-03T01:37:52.733Z,0.90
2023-05-03T01:38:52.820Z,0.88
2023-05-03T01:39:52.731Z,0.88
2023-05-03T01:40:52.750Z,0.88
2023-05-03T01:41:52.802Z,0.87
2023-05-03T01:42:52.688Z,0.87
2023-05-03T01:43:52.665Z,0.86
2023-05-03T01:44:52.730Z,0.86
2023-05-03T01:45:52.709Z,0.86
2023-05-03T01:46:52.738Z,0.84
2023-05-03T01:47:52.725Z,0.83
2023-05-03T01:48:52.649Z,0.83
2023-05-03T01:49:52.641Z,0.80
2023-05-03T01:50:52.601Z,0.76
2023-05-03T01:51:52.633Z,0.73
2023-05-03T01:52:52.644Z,0.72
2023-05-03T01:53:52.550Z,0.69
2023-05-03T01:54:52.588Z,0.70
2023-05-03T01:55:52.794Z,0.70
2023-05-03T01:56:52.556Z,0.70
2023-05-03T01:57:52.501Z,0.69
2023-05-03T01:58:52.551Z,0.69
2023-05-03T01:59:52.947Z,0.68
2023-05-03T02:00:52.521Z,0.68
2023-05-03T02:01:52.501Z,0.65
2023-05-03T02:02:52.540Z,0.62
2023-05-03T02:03:52.579Z,0.62
2023-05-03T02:04:52.696Z,0.65
2023-05-03T02:05:52.479Z,0.61
2023-05-03T02:06:52.522Z,0.57
2023-05-03T02:07:52.410Z,0.55
2023-05-03T02:08:52.485Z,0.55
2023-05-03T02:09:52.389Z,0.53
2023-05-03T02:10:52.440Z,0.53
2023-05-03T02:11:52.413Z,0.51
2023-05-03T02:12:52.407Z,0.51
2023-05-03T02:13:52.346Z,0.53
2023-05-03T02:14:52.420Z,0.51
2023-05-03T02:15:52.364Z,0.50
2023-05-03T02:16:52.423Z,0.49
2023-05-03T02:17:52.345Z,0.47
2023-05-03T02:18:52.327Z,0.46
2023-05-03T02:19:52.317Z,0.46
2023-05-03T02:20:52.305Z,0.42
2023-05-03T02:21:52.312Z,0.41
2023-05-03T02:22:52.260Z,0.38
2023-05-03T02:23:52.237Z,0.38
2023-05-03T02:24:52.355Z,0.38
2023-05-03T02:25:52.414Z,0.36
2023-05-03T02:26:52.254Z,0.35
2023-05-03T02:27:52.223Z,0.35
2023-05-03T02:28:52.229Z,0.38
2023-05-03T02:29:52.181Z,0.36
2023-05-03T02:30:52.252Z,0.36
2023-05-03T02:31:52.201Z,0.33
2023-05-03T02:32:52.237Z,0.33
2023-05-03T02:33:52.136Z,0.31
2023-05-03T02:34:52.215Z,0.28
2023-05-03T02:35:52.118Z,0.28
2023-05-03T02:36:52.245Z,0.26
2023-05-03T02:37:52.126Z,0.26
2023-05-03T02:38:52.237Z,0.24
2023-05-03T02:39:52.045Z,0.26
2023-05-03T02:40:52.118Z,0.24
2023-05-03T02:41:52.063Z,0.24
2023-05-03T02:42:52.033Z,0.23
2023-05-03T02:43:52.090Z,0.21
2023-05-03T02:44:52.005Z,0.20
2023-05-03T02:45:51.988Z,0.17
2023-05-03T02:46:52.023Z,0.17
2023-05-03T02:47:52.046Z,0.15
2023-05-03T02:48:52.023Z,0.17
2023-05-03T02:49:51.974Z,0.17
2023-05-03T02:50:51.937Z,0.17
2023-05-03T02:51:51.918Z,0.15
2023-05-03T02:52:51.929Z,0.14
2023-05-03T02:53:51.883Z,0.13
2023-05-03T02:54:51.960Z,0.13
2023-05-03T02:55:51.904Z,0.13
2023-05-03T02:56:51.887Z,0.15
2023-05-03T02:57:51.844Z,0.13
2023-05-03T02:58:51.846Z,0.13
2023-05-03T02:59:51.842Z,0.11
2023-05-03T03:00:51.860Z,0.08
2023-05-03T03:01:51.880Z,0.07
2023-05-03T03:02:51.819Z,0.04
2023-05-03T03:03:51.965Z,0.04
2023-05-03T03:04:51.798Z,0.02
2023-05-03T03:05:51.748Z,0.00
2023-05-03T03:06:52.523Z,-0.01
2023-05-03T03:07:51.784Z,0.00
2023-05-03T03:08:51.744Z,-0.01
2023-05-03T03:09:51.734Z,-0.04
2023-05-03T03:10:51.728Z,-0.03
2023-05-03T03:11:51.687Z,-0.04
2023-05-03T03:12:51.728Z,-0.05
2023-05-03T03:13:51.688Z,-0.07
2023-05-03T03:14:51.704Z,-0.10
2023-05-03T03:15:51.757Z,-0.14
2023-05-03T03:16:51.696Z,-0.14
2023-05-03T03:17:51.645Z,-0.10
2023-05-03T03:18:51.715Z,-0.08
2023-05-03T03:19:51.618Z,-0.07
2023-05-03T03:20:51.587Z,-0.05
2023-05-03T03:21:51.597Z,-0.07
2023-05-03T03:22:51.570Z,-0.08
2023-05-03T03:23:51.610Z,-0.08
2023-05-03T03:24:51.639Z,-0.07
2023-05-03T03:25:51.557Z,-0.07
2023-05-03T03:26:51.529Z,-0.05
2023-05-03T03:27:51.492Z,-0.10
2023-05-03T03:28:51.515Z,-0.10
2023-05-03T03:29:51.732Z,-0.10
2023-05-03T03:30:51.639Z,-0.14
2023-05-03T03:31:51.477Z,-0.15
2023-05-03T03:32:51.599Z,-0.15
2023-05-03T03:33:51.420Z,-0.14
2023-05-03T03:34:51.479Z,-0.11
2023-05-03T03:35:51.440Z,-0.14
2023-05-03T03:36:51.429Z,-0.14
2023-05-03T03:37:51.600Z,-0.14
2023-05-03T03:38:51.450Z,-0.10
2023-05-03T03:39:51.370Z,-0.10
2023-05-03T03:40:51.596Z,-0.11
2023-05-03T03:41:51.346Z,-0.11
2023-05-03T03:42:51.369Z,-0.14
2023-05-03T03:43:51.336Z,-0.14
2023-05-03T03:44:51.454Z,-0.14
2023-05-03T03:45:51.297Z,-0.16
2023-05-03T03:46:51.425Z,-0.15
2023-05-03T03:47:53.564Z,-0.16
2023-05-03T03:48:51.316Z,-0.16
2023-05-03T03:49:51.267Z,-0.19
2023-05-03T03:50:51.312Z,-0.19
2023-05-03T03:51:51.246Z,-0.19
2023-05-03T03:52:51.277Z,-0.21
2023-05-03T03:53:51.240Z,-0.21
2023-05-03T03:54:51.229Z,-0.22
2023-05-03T03:55:51.196Z,-0.22
2023-05-03T03:56:51.208Z,-0.22
2023-05-03T03:57:51.184Z,-0.23
2023-05-03T03:58:51.193Z,-0.23
2023-05-03T03:59:51.160Z,-0.23
2023-05-03T04:00:51.191Z,-0.23
2023-05-03T04:01:51.155Z,-0.22
2023-05-03T04:02:51.364Z,-0.22
2023-05-03T04:03:51.182Z,-0.22
2023-05-03T04:04:51.255Z,-0.25
2023-05-03T04:05:51.178Z,-0.26
2023-05-03T04:06:51.168Z,-0.28
2023-05-03T04:07:51.113Z,-0.29
2023-05-03T04:08:51.072Z,-0.29
2023-05-03T04:09:51.050Z,-0.28
2023-05-03T04:10:51.272Z,-0.28
2023-05-03T04:11:51.245Z,-0.28
2023-05-03T04:12:51.332Z,-0.25
2023-05-03T04:13:51.019Z,-0.25
2023-05-03T04:14:51.035Z,-0.23
2023-05-03T04:15:51.163Z,-0.23
2023-05-03T04:16:51.097Z,-0.22
2023-05-03T04:17:51.154Z,-0.22
2023-05-03T04:18:51.010Z,-0.23
2023-05-03T04:19:51.099Z,-0.22
2023-05-03T04:20:50.953Z,-0.18
2023-05-03T04:21:51.345Z,-0.18
2023-05-03T04:22:51.026Z,-0.15
2023-05-03T04:23:52.226Z,-0.14
2023-05-03T04:24:50.938Z,-0.11
2023-05-03T04:25:50.865Z,-0.14
2023-05-03T04:26:50.860Z,-0.10
2023-05-03T04:27:50.942Z,-0.08
2023-05-03T04:28:50.817Z,-0.08
2023-05-03T04:29:50.859Z,-0.07
2023-05-03T04:30:50.943Z,-0.05
2023-05-03T04:31:51.138Z,-0.04
2023-05-03T04:32:50.809Z,-0.04
2023-05-03T04:33:50.807Z,-0.03
2023-05-03T04:34:51.905Z,0.00
2023-05-03T04:35:50.774Z,0.04
2023-05-03T04:36:50.775Z,0.04
2023-05-03T04:37:50.987Z,0.08
2023-05-03T04:38:50.723Z,0.08
2023-05-03T04:39:50.737Z,0.10
2023-05-03T04:40:50.695Z,0.13
2023-05-03T04:41:50.719Z,0.15
2023-05-03T04:42:50.683Z,0.15
2023-05-03T04:43:50.712Z,0.17
2023-05-03T04:44:50.638Z,0.20
2023-05-03T04:45:50.706Z,0.23
2023-05-03T04:46:51.342Z,0.24
2023-05-03T04:47:50.703Z,0.26
2023-05-03T04:48:50.615Z,0.29
2023-05-03T04:49:51.092Z,0.33
2023-05-03T04:50:50.704Z,0.35
2023-05-03T04:51:50.578Z,0.38
2023-05-03T04:52:50.574Z,0.39
2023-05-03T04:53:50.594Z,0.42
2023-05-03T04:54:50.576Z,0.44
2023-05-03T04:55:50.583Z,0.46
2023-05-03T04:56:50.600Z,0.46
2023-05-03T04:57:50.557Z,0.46
2023-05-03T04:58:50.494Z,0.50
2023-05-03T04:59:50.638Z,0.51
2023-05-03T05:00:50.485Z,0.60
2023-05-03T05:01:50.505Z,0.69
2023-05-03T05:02:50.500Z,0.75
2023-05-03T05:03:50.604Z,0.83
2023-05-03T05:04:50.428Z,0.93
2023-05-03T05:05:50.448Z,1.02
2023-05-03T05:06:50.500Z,1.14
2023-05-03T05:07:50.409Z,1.26
2023-05-03T05:08:50.368Z,1.36
2023-05-03T05:09:50.598Z,1.48
2023-05-03T05:10:50.360Z,1.60
2023-05-03T05:11:50.363Z,1.70
2023-05-03T05:12:50.336Z,1.80
2023-05-03T05:13:50.375Z,1.90
2023-05-03T05:14:50.516Z,2.05
2023-05-03T05:15:50.339Z,2.12
2023-05-03T05:16:50.343Z,2.20
2023-05-03T05:17:50.502Z,2.28
2023-05-03T05:18:50.302Z,2.35
2023-05-03T05:19:50.382Z,2.39
2023-05-03T05:20:50.249Z,2.43
2023-05-03T05:21:50.260Z,2.52
2023-05-03T05:22:50.438Z,2.57
2023-05-03T05:23:50.230Z,2.64
2023-05-03T05:24:50.215Z,2.71
2023-05-03T05:25:50.188Z,2.79
2023-05-03T05:26:50.268Z,2.89
2023-05-03T05:27:50.195Z,2.87
2023-05-03T05:28:50.164Z,2.96
2023-05-03T05:29:50.840Z,3.02
2023-05-03T05:30:50.710Z,3.13
2023-05-03T05:31:50.196Z,3.20
2023-05-03T05:32:50.158Z,3.31
2023-05-03T05:33:50.149Z,3.42
2023-05-03T05:34:50.079Z,3.51
2023-05-03T05:35:50.117Z,3.58
2023-05-03T05:36:50.094Z,3.69
2023-05-03T05:37:50.124Z,3.79
2023-05-03T05:38:50.046Z,3.90
2023-05-03T05:39:50.059Z,3.97
2023-05-03T05:40:50.004Z,4.06
2023-05-03T05:41:50.056Z,4.14
2023-05-03T05:42:49.999Z,4.23
2023-05-03T05:43:49.984Z,4.30
2023-05-03T05:44:49.996Z,4.34
2023-05-03T05:45:50.077Z,4.40
2023-05-03T05:46:50.025Z,4.45
2023-05-03T05:47:50.028Z,4.51
2023-05-03T05:48:49.918Z,4.58
2023-05-03T05:49:49.973Z,4.63
2023-05-03T05:50:50.334Z,4.70
2023-05-03T05:51:49.948Z,4.78
2023-05-03T05:52:49.970Z,4.85
2023-05-03T05:53:49.936Z,4.91
2023-05-03T05:54:50.028Z,4.96
2023-05-03T05:55:49.909Z,5.00
2023-05-03T05:56:49.918Z,5.03
2023-05-03T05:57:49.884Z,5.07
2023-05-03T05:58:49.879Z,5.13
2023-05-03T05:59:49.863Z,5.15
2023-05-03T06:00:49.804Z,5.17
2023-05-03T06:01:49.828Z,5.20
2023-05-03T06:02:50.163Z,5.22
2023-05-03T06:03:49.794Z,5.24
2023-05-03T06:04:49.804Z,5.28
2023-05-03T06:05:49.828Z,5.33
2023-05-03T06:06:49.757Z,5.38
2023-05-03T06:07:49.761Z,5.42
2023-05-03T06:08:49.700Z,5.45
2023-05-03T06:09:49.743Z,5.46
2023-05-03T06:10:50.464Z,5.51
2023-05-03T06:11:49.784Z,5.54
2023-05-03T06:12:49.668Z,5.58
2023-05-03T06:13:49.694Z,5.61
2023-05-03T06:15:01.445Z,5.68
2023-05-03T06:15:50.664Z,5.74
2023-05-03T06:16:49.720Z,5.81
2023-05-03T06:17:49.707Z,5.90
2023-05-03T06:18:49.598Z,5.99
2023-05-03T06:19:49.617Z,6.08
2023-05-03T06:20:49.601Z,6.14
2023-05-03T06:21:49.588Z,6.21
2023-05-03T06:22:49.595Z,6.30
2023-05-03T06:23:49.580Z,6.36
2023-05-03T06:24:49.573Z,6.43
2023-05-03T06:25:49.548Z,6.49
2023-05-03T06:26:49.524Z,6.54
2023-05-03T06:27:49.504Z,6.61
2023-05-03T06:28:49.463Z,6.69
2023-05-03T06:29:49.537Z,6.76
2023-05-03T06:30:49.537Z,6.79
2023-05-03T06:31:49.546Z,6.84
2023-05-03T06:32:49.529Z,6.81
2023-05-03T06:33:49.498Z,6.87
2023-05-03T06:34:49.443Z,6.94
2023-05-03T06:35:49.454Z,6.99
2023-05-03T06:36:49.391Z,7.06
2023-05-03T06:37:49.445Z,7.10
2023-05-03T06:38:49.372Z,7.13
2023-05-03T06:39:49.362Z,7.17
2023-05-03T06:40:49.382Z,7.24
2023-05-03T06:41:49.354Z,7.27
2023-05-03T06:42:49.320Z,7.31
2023-05-03T06:43:49.318Z,7.37
2023-05-03T06:44:49.336Z,7.43
2023-05-03T06:45:49.326Z,7.49
2023-05-03T06:46:49.358Z,7.55
2023-05-03T06:47:49.347Z,7.61
2023-05-03T06:48:49.302Z,7.69
2023-05-03T06:49:49.258Z,7.75
2023-05-03T06:50:49.217Z,7.82
2023-05-03T06:51:49.454Z,7.89
2023-05-03T06:52:49.548Z,7.97
2023-05-03T06:53:49.215Z,8.01
2023-05-03T06:54:49.210Z,8.07
2023-05-03T06:55:49.194Z,8.12
2023-05-03T06:56:49.158Z,8.20
2023-05-03T06:57:49.366Z,8.25
2023-05-03T06:58:49.138Z,8.30
2023-05-03T06:59:49.188Z,8.34
2023-05-03T07:00:49.093Z,8.37
2023-05-03T07:01:49.203Z,8.40
2023-05-03T07:02:49.303Z,8.44
2023-05-03T07:03:49.157Z,8.47
2023-05-03T07:04:49.087Z,8.50
2023-05-03T07:05:49.054Z,8.52
2023-05-03T07:07:50.096Z,8.59
2023-05-03T07:08:49.171Z,8.61
2023-05-03T07:09:49.010Z,8.66
2023-05-03T07:10:49.097Z,8.71
2023-05-03T07:11:49.043Z,8.71
2023-05-03T07:12:49.131Z,8.76
2023-05-03T07:13:48.974Z,8.80
2023-05-03T07:14:48.989Z,8.87
2023-05-03T07:15:49.036Z,8.92
2023-05-03T07:16:49.054Z,8.95
2023-05-03T07:17:48.954Z,9.02
2023-05-03T07:18:48.967Z,9.10
2023-05-03T07:19:48.941Z,9.15
2023-05-03T07:20:48.926Z,9.20
2023-05-03T07:21:48.894Z,9.23
2023-05-03T07:22:48.907Z,9.29
2023-05-03T07:23:48.841Z,9.33
2023-05-03T07:24:48.942Z,9.38
2023-05-03T07:25:48.828Z,9.38
2023-05-03T07:26:49.232Z,9.39
2023-05-03T07:27:48.794Z,9.46
2023-05-03T07:28:48.820Z,9.50
2023-05-03T07:29:48.787Z,9.57
2023-05-03T07:30:48.788Z,9.65
2023-05-03T07:31:49.942Z,9.71
2023-05-03T07:32:49.206Z,9.78
2023-05-03T07:33:49.418Z,9.78
2023-05-03T07:34:48.822Z,9.68
2023-05-03T07:35:48.727Z,9.66
2023-05-03T07:36:48.750Z,9.58
2023-05-03T07:37:48.733Z,9.64
2023-05-03T07:38:48.848Z,9.71
2023-05-03T07:39:48.661Z,9.75
2023-05-03T07:40:48.696Z,9.78
2023-05-03T07:41:48.676Z,9.72
2023-05-03T07:42:48.713Z,9.72
2023-05-03T07:43:49.857Z,9.78
2023-05-03T07:44:48.650Z,9.89
2023-05-03T07:45:48.607Z,9.97
2023-05-03T07:46:48.621Z,10.02
2023-05-03T07:47:48.630Z,10.07
2023-05-03T07:48:48.608Z,10.08
2023-05-03T07:49:48.628Z,10.17
2023-05-03T07:50:48.615Z,10.17
2023-05-03T07:51:48.516Z,10.20
2023-05-03T07:52:48.559Z,10.15
2023-05-03T07:53:48.567Z,10.22
2023-05-03T07:54:48.550Z,10.30
2023-05-03T07:55:48.500Z,10.36
2023-05-03T07:56:48.503Z,10.42
2023-05-03T07:57:48.478Z,10.44
2023-05-03T07:58:50.956Z,10.44
2023-05-03T07:59:49.463Z,10.47
2023-05-03T08:00:48.425Z,10.48
2023-05-03T08:01:48.411Z,10.53
2023-05-03T08:02:48.556Z,10.63
2023-05-03T08:03:48.529Z,10.68
2023-05-03T08:04:48.643Z,10.71
2023-05-03T08:05:48.405Z,10.79
2023-05-03T08:06:48.494Z,10.88
2023-05-03T08:07:48.528Z,10.97
2023-05-03T08:08:48.378Z,11.06
2023-05-03T08:09:48.415Z,11.18
2023-05-03T08:10:48.333Z,11.27
2023-05-03T08:11:48.304Z,11.35
2023-05-03T08:12:49.030Z,11.29
2023-05-03T08:13:48.362Z,11.29
2023-05-03T08:14:48.366Z,11.36
2023-05-03T08:15:48.284Z,11.40
2023-05-03T08:16:48.277Z,11.47
2023-05-03T08:17:48.249Z,11.58
2023-05-03T08:18:48.292Z,11.62
2023-05-03T08:19:48.237Z,11.44
2023-05-03T08:20:48.272Z,11.44
2023-05-03T08:21:48.280Z,11.44
2023-05-03T08:22:48.201Z,11.49
2023-05-03T08:23:48.189Z,11.54
2023-05-03T08:24:48.324Z,11.58
2023-05-03T08:25:48.140Z,11.58
2023-05-03T08:26:48.164Z,11.62
2023-05-03T08:27:48.128Z,11.69
2023-05-03T08:28:48.113Z,11.79
2023-05-03T08:29:48.463Z,11.88
2023-05-03T08:30:48.097Z,11.96
2023-05-03T08:31:49.051Z,11.96
2023-05-03T08:32:48.190Z,11.95
2023-05-03T08:33:48.069Z,11.98
2023-05-03T08:34:48.143Z,12.01
2023-05-03T08:35:49.334Z,12.07
2023-05-03T08:36:48.047Z,12.09
2023-05-03T08:37:48.046Z,12.12
2023-05-03T08:38:48.006Z,12.16
2023-05-03T08:39:47.962Z,12.21
2023-05-03T08:40:48.430Z,12.29
2023-05-03T08:41:47.943Z,12.34
2023-05-03T08:42:47.964Z,12.39
2023-05-03T08:43:47.980Z,12.41
2023-05-03T08:44:47.970Z,12.41
2023-05-03T08:45:47.892Z,12.46
2023-05-03T08:46:47.999Z,12.52
2023-05-03T08:47:47.959Z,12.56
2023-05-03T08:48:47.918Z,12.60
2023-05-03T08:49:47.977Z,12.68
2023-05-03T08:50:47.868Z,12.71
2023-05-03T08:51:47.965Z,12.78
2023-05-03T08:52:47.851Z,12.85
2023-05-03T08:53:47.811Z,12.86
2023-05-03T08:54:47.931Z,12.92
2023-05-03T08:55:47.811Z,13.00
2023-05-03T08:56:47.826Z,13.03
2023-05-03T08:57:47.794Z,13.05
2023-05-03T08:58:47.855Z,13.11
2023-05-03T08:59:47.832Z,13.17
2023-05-03T09:00:47.773Z,13.22
2023-05-03T09:01:47.806Z,13.25
2023-05-03T09:02:47.804Z,13.28
2023-05-03T09:03:49.483Z,13.30
2023-05-03T09:04:47.723Z,13.32
2023-05-03T09:05:47.687Z,13.39
2023-05-03T09:06:47.751Z,13.45
2023-05-03T09:07:47.905Z,13.51
2023-05-03T09:08:48.578Z,13.55
2023-05-03T09:09:47.664Z,13.48
2023-05-03T09:10:47.649Z,13.41
2023-05-03T09:11:47.613Z,13.41
2023-05-03T09:12:47.676Z,13.46
2023-05-03T09:13:47.682Z,13.36
2023-05-03T09:14:47.770Z,13.23
2023-05-03T09:15:47.662Z,13.11
2023-05-03T09:16:47.843Z,13.15
2023-05-03T09:17:47.622Z,13.23
2023-05-03T09:18:47.569Z,13.28
2023-05-03T09:19:47.842Z,13.15
2023-05-03T09:20:47.578Z,13.17
2023-05-03T09:21:47.630Z,13.25
2023-05-03T09:22:47.521Z,13.33
2023-05-03T09:23:47.817Z,13.46
2023-05-03T09:24:47.530Z,13.59
2023-05-03T09:25:47.832Z,13.69
2023-05-03T09:26:47.637Z,13.73
2023-05-03T09:27:47.482Z,13.75
2023-05-03T09:28:47.484Z,13.77
2023-05-03T09:29:47.596Z,13.81
2023-05-03T09:30:47.455Z,13.84
2023-05-03T09:31:47.600Z,13.91
2023-05-03T09:32:47.707Z,14.02
2023-05-03T09:33:47.389Z,14.12
2023-05-03T09:34:47.619Z,14.25
2023-05-03T09:35:47.505Z,14.32
2023-05-03T09:36:47.420Z,14.42
2023-05-03T09:37:47.324Z,14.45
2023-05-03T09:38:47.342Z,14.45
2023-05-03T09:39:47.542Z,14.45
2023-05-03T09:40:47.312Z,14.40
2023-05-03T09:41:47.271Z,14.40
2023-05-03T09:42:47.303Z,14.43
2023-05-03T09:43:47.241Z,14.18
2023-05-03T09:44:47.314Z,14.00
2023-05-03T09:45:47.265Z,13.97
2023-05-03T09:46:47.270Z,14.00
2023-05-03T09:47:47.249Z,14.06
2023-05-03T09:48:47.261Z,14.14
2023-05-03T09:49:47.176Z,14.22
2023-05-03T09:50:47.189Z,14.33
2023-05-03T09:51:47.366Z,14.42
2023-05-03T09:52:47.150Z,14.47
2023-05-03T09:53:47.158Z,14.45
2023-05-03T09:54:47.156Z,14.52
2023-05-03T09:55:47.126Z,14.54
2023-05-03T09:56:47.148Z,14.51
2023-05-03T09:57:47.094Z,14.55
2023-05-03T09:58:47.121Z,14.64
2023-05-03T09:59:47.060Z,14.72
2023-05-03T10:00:47.089Z,14.81
2023-05-03T10:01:47.129Z,14.81
2023-05-03T10:02:47.100Z,14.86
2023-05-03T10:03:47.288Z,14.96
2023-05-03T10:04:47.027Z,14.99
2023-05-03T10:05:46.984Z,15.02
2023-05-03T10:06:47.043Z,15.02
2023-05-03T10:07:47.029Z,15.10
2023-05-03T10:08:46.984Z,15.14
2023-05-03T10:09:46.975Z,15.10
2023-05-03T10:10:47.009Z,15.03
2023-05-03T10:11:46.903Z,15.03
2023-05-03T10:12:46.979Z,15.11
2023-05-03T10:13:46.908Z,15.10
2023-05-03T10:14:47.028Z,15.10
2023-05-03T10:15:46.921Z,15.10
2023-05-03T10:16:47.092Z,15.13
2023-05-03T10:17:48.678Z,15.21
2023-05-03T10:18:46.877Z,15.32
2023-05-03T10:19:47.062Z,15.41
2023-05-03T10:20:46.911Z,15.50
2023-05-03T10:21:46.798Z,15.56
2023-05-03T10:22:46.827Z,15.36
2023-05-03T10:23:46.770Z,15.32
2023-05-03T10:24:46.808Z,15.38
2023-05-03T10:25:47.056Z,15.47
2023-05-03T10:26:47.031Z,15.43
2023-05-03T10:27:46.777Z,15.53
2023-05-03T10:28:46.783Z,15.64
2023-05-03T10:29:46.734Z,15.75
2023-05-03T10:30:46.743Z,15.89
2023-05-03T10:31:46.877Z,16.01
2023-05-03T10:32:46.776Z,16.12
2023-05-03T10:33:46.651Z,16.24
2023-05-03T10:34:46.684Z,16.30
2023-05-03T10:35:46.716Z,16.35
2023-05-03T10:36:49.704Z,16.43
2023-05-03T10:37:46.691Z,16.41
2023-05-03T10:38:46.628Z,16.43
2023-05-03T10:39:46.625Z,16.46
2023-05-03T10:40:46.658Z,16.50
2023-05-03T10:41:46.766Z,16.57
2023-05-03T10:42:46.620Z,16.61
2023-05-03T10:43:46.832Z,16.63
2023-05-03T10:44:46.601Z,16.56
2023-05-03T10:45:48.843Z,16.56
2023-05-03T10:46:46.722Z,16.57
2023-05-03T10:47:46.566Z,16.60
2023-05-03T10:48:46.548Z,16.66
2023-05-03T10:49:46.549Z,16.71
2023-05-03T10:50:46.533Z,16.78
2023-05-03T10:51:46.907Z,16.85
2023-05-03T10:52:46.472Z,16.73
2023-05-03T10:53:46.897Z,16.61
2023-05-03T10:54:46.595Z,16.49
2023-05-03T10:55:46.432Z,16.50
2023-05-03T10:56:46.461Z,16.57
2023-05-03T10:57:46.648Z,16.67
2023-05-03T10:58:46.509Z,16.79
2023-05-03T10:59:46.361Z,16.93
2023-05-03T11:00:46.450Z,17.03
2023-05-03T11:01:46.403Z,17.06
2023-05-03T11:02:46.387Z,17.08
2023-05-03T11:03:46.389Z,17.12
2023-05-03T11:04:46.460Z,17.11
2023-05-03T11:05:46.370Z,16.94
2023-05-03T11:06:46.433Z,16.76
2023-05-03T11:07:46.278Z,16.79
2023-05-03T11:08:46.316Z,16.85
2023-05-03T11:09:47.581Z,16.91
2023-05-03T11:10:46.252Z,16.98
2023-05-03T11:11:46.264Z,17.01
2023-05-03T11:12:46.226Z,17.08
2023-05-03T11:13:46.291Z,17.14
2023-05-03T11:14:46.216Z,17.19
2023-05-03T11:15:48.317Z,17.07
2023-05-03T11:16:46.266Z,17.11
2023-05-03T11:17:46.487Z,17.14
2023-05-03T11:18:46.173Z,17.18
2023-05-03T11:19:46.272Z,17.07
2023-05-03T11:20:46.171Z,17.07
2023-05-03T11:21:46.999Z,17.14
2023-05-03T11:22:46.097Z,17.23
2023-05-03T11:23:46.112Z,17.25
2023-05-03T11:24:46.062Z,17.23
2023-05-03T11:25:46.087Z,17.14
2023-05-03T11:26:46.132Z,17.19
2023-05-03T11:27:47.707Z,17.26
2023-05-03T11:28:46.051Z,17.28
2023-05-03T11:29:46.028Z,17.36
2023-05-03T11:30:46.029Z,17.37
2023-05-03T11:31:46.044Z,17.37
2023-05-03T11:32:46.021Z,17.37
2023-05-03T11:33:47.997Z,17.43
2023-05-03T11:34:45.970Z,17.46
2023-05-03T11:35:45.974Z,17.46
2023-05-03T11:36:45.932Z,17.51
2023-05-03T11:37:46.228Z,17.56
2023-05-03T11:38:46.471Z,17.63
2023-05-03T11:39:45.974Z,17.68
2023-05-03T11:40:45.922Z,17.72
2023-05-03T11:41:46.087Z,17.77
2023-05-03T11:42:45.881Z,17.63
2023-05-03T11:43:45.948Z,17.63
2023-05-03T11:44:45.889Z,17.72
2023-05-03T11:45:46.167Z,17.79
2023-05-03T11:46:45.991Z,17.89
2023-05-03T11:47:45.839Z,17.92
2023-05-03T11:48:45.814Z,17.95
2023-05-03T11:49:45.861Z,18.00
2023-05-03T11:50:46.152Z,18.07
2023-05-03T11:51:48.443Z,18.12
2023-05-03T11:52:45.828Z,18.17
2023-05-03T11:53:45.791Z,18.18
2023-05-03T11:54:45.761Z,18.08
2023-05-03T11:55:45.797Z,17.89
2023-05-03T11:56:45.729Z,17.66
2023-05-03T11:57:45.765Z,17.64
2023-05-03T11:58:45.702Z,17.68
2023-05-03T11:59:45.806Z,17.77
2023-05-03T12:00:45.735Z,17.86
2023-05-03T12:01:45.681Z,17.93
2023-05-03T12:02:45.888Z,18.08
2023-05-03T12:03:45.924Z,18.20
2023-05-03T12:05:03.559Z,18.33
2023-05-03T12:05:46.872Z,18.42
2023-05-03T12:06:46.480Z,18.48
2023-05-03T12:07:45.792Z,18.55
2023-05-03T12:08:46.676Z,18.58
2023-05-03T12:09:53.024Z,18.57
2023-05-03T12:10:47.088Z,18.60
2023-05-03T12:11:47.838Z,18.60
2023-05-03T12:12:48.809Z,18.57
2023-05-03T12:13:47.626Z,18.62
2023-05-03T12:14:45.844Z,18.67
2023-05-03T12:15:50.442Z,18.75
2023-05-03T12:16:46.633Z,18.82
2023-05-03T12:17:48.469Z,18.87
2023-05-03T12:18:46.868Z,18.87
2023-05-03T12:19:48.526Z,18.84
2023-05-03T12:21:54.926Z,18.81
2023-05-03T12:22:46.674Z,18.81
2023-05-03T12:23:46.025Z,18.87
2023-05-03T12:24:45.640Z,18.91
2023-05-03T12:25:45.680Z,18.98
2023-05-03T12:26:45.905Z,18.82
2023-05-03T12:27:47.299Z,18.75
2023-05-03T12:28:46.381Z,18.75
2023-05-03T12:30:01.986Z,18.78
2023-05-03T12:30:46.793Z,18.63
2023-05-03T12:31:48.354Z,18.58
2023-05-03T12:32:45.427Z,18.60
2023-05-03T12:34:01.178Z,18.62
2023-05-03T12:34:47.252Z,18.66
2023-05-03T12:35:47.783Z,18.73
2023-05-03T12:36:48.720Z,18.81
2023-05-03T12:37:49.003Z,18.63
2023-05-03T12:38:45.484Z,18.54
2023-05-03T12:39:48.761Z,18.36
2023-05-03T12:40:46.408Z,18.29
2023-05-03T12:42:45.283Z,18.37
2023-05-03T12:43:45.322Z,18.44
2023-05-03T12:44:48.148Z,18.41
2023-05-03T12:45:51.196Z,18.39
2023-05-03T12:46:46.275Z,18.47
2023-05-03T12:47:45.376Z,18.55
2023-05-03T12:48:46.690Z,18.51
2023-05-03T12:49:46.324Z,18.42
2023-05-03T12:50:45.953Z,18.44
2023-05-03T12:51:55.436Z,18.48
2023-05-03T12:52:46.220Z,18.55
2023-05-03T12:53:47.326Z,18.66
2023-05-03T12:55:02.752Z,18.75
2023-05-03T12:55:51.383Z,18.87
2023-05-03T12:56:48.155Z,18.94
2023-05-03T12:57:46.158Z,18.80
2023-05-03T12:59:07.661Z,18.73
2023-05-03T12:59:52.095Z,18.76
2023-05-03T13:01:15.229Z,18.82
2023-05-03T13:03:08.376Z,18.88
2023-05-03T13:03:56.030Z,18.88
2023-05-03T13:04:56.714Z,18.87
2023-05-03T13:05:46.429Z,18.84
2023-05-03T13:06:45.520Z,18.85
2023-05-03T13:07:45.180Z,18.85
2023-05-03T13:08:49.916Z,18.91